Terminal Aerodrome Forecast
Issued by NWS

Home | Current Version | Previous Version | Text Only | Print | Product List | Glossary On
Versions: 1 2 3 4 5 6 7 8 9 10 11 12 13 14 15 16 17
000
FTUS45 KTFX 051145
TAFCTB
TAF
KCTB 051145Z 0512/0612 35015KT P6SM SCT006 BKN015
      TEMPO 0512/0515 3SM -RA BKN006
     FM051500 01012KT P6SM SCT015 BKN030
      TEMPO 0515/0518 5SM -RA BKN015
     FM051800 35010KT P6SM VCSH SCT030 BKN060
     FM052200 35008KT P6SM BKN090
     FM060300 32005KT P6SM BKN150=

USA.gov is the U.S. government's official web portal to all federal, state and local government web resources and services.